createdAt,value
2023-10-20T00:00:41.975Z,17.63
2023-10-20T00:03:09.794Z,17.61
2023-10-20T00:05:36.836Z,17.61
2023-10-20T00:08:03.998Z,17.61
2023-10-20T00:10:36.337Z,17.60
2023-10-20T00:13:03.242Z,17.59
2023-10-20T00:15:29.764Z,17.59
2023-10-20T00:17:56.299Z,17.59
2023-10-20T00:20:22.839Z,17.56
2023-10-20T00:22:49.713Z,17.56
2023-10-20T00:25:16.298Z,17.56
2023-10-20T00:27:42.809Z,17.54
2023-10-20T00:30:10.619Z,17.54
2023-10-20T00:32:37.433Z,17.53
2023-10-20T00:35:06.825Z,17.53
2023-10-20T00:37:33.306Z,17.52
2023-10-20T00:39:59.773Z,17.52
2023-10-20T00:42:26.206Z,17.51
2023-10-20T00:44:55.020Z,17.50
2023-10-20T00:47:21.587Z,17.49
2023-10-20T00:49:50.724Z,17.47
2023-10-20T00:52:20.161Z,17.46
2023-10-20T00:54:48.618Z,17.46
2023-10-20T00:57:17.492Z,17.45
2023-10-20T00:59:44.534Z,17.46
2023-10-20T01:02:11.548Z,17.44
2023-10-20T01:04:38.056Z,17.42
2023-10-20T01:07:04.566Z,17.42
2023-10-20T01:09:31.144Z,17.41
2023-10-20T01:11:58.103Z,17.40
2023-10-20T01:14:24.581Z,17.40
2023-10-20T01:16:51.219Z,17.39
2023-10-20T01:19:17.667Z,17.38
2023-10-20T01:21:45.994Z,17.37
2023-10-20T01:24:12.474Z,17.37
2023-10-20T01:26:40.162Z,17.37
2023-10-20T01:29:10.886Z,17.36
2023-10-20T01:31:39.993Z,17.36
2023-10-20T01:34:06.547Z,17.34
2023-10-20T01:36:33.088Z,17.34
2023-10-20T01:38:59.653Z,17.33
2023-10-20T01:41:27.477Z,17.33
2023-10-20T01:43:56.313Z,17.32
2023-10-20T01:46:22.889Z,17.31
2023-10-20T01:48:49.363Z,17.31
2023-10-20T01:51:15.832Z,17.30
2023-10-20T01:53:42.424Z,17.28
2023-10-20T01:56:09.041Z,17.28
2023-10-20T01:58:35.543Z,17.27
2023-10-20T02:01:02.130Z,17.27
2023-10-20T02:03:28.850Z,17.25
2023-10-20T02:05:55.422Z,17.26
2023-10-20T02:08:21.901Z,17.24
2023-10-20T02:10:48.398Z,17.23
2023-10-20T02:13:14.883Z,17.24
2023-10-20T02:15:46.262Z,17.23
2023-10-20T02:18:12.968Z,17.23
2023-10-20T02:20:39.509Z,17.23
2023-10-20T02:23:06.010Z,17.22
2023-10-20T02:25:32.465Z,17.20
2023-10-20T02:27:58.934Z,17.20
2023-10-20T02:30:25.418Z,17.19
2023-10-20T02:32:51.963Z,17.19
2023-10-20T02:35:18.522Z,17.17
2023-10-20T02:37:44.977Z,17.17
2023-10-20T02:40:11.895Z,17.16
2023-10-20T02:42:38.468Z,17.15
2023-10-20T02:45:10.616Z,17.16
2023-10-20T02:47:37.185Z,17.15
2023-10-20T02:50:03.952Z,17.14
2023-10-20T02:52:30.475Z,17.13
2023-10-20T02:54:57.505Z,17.12
2023-10-20T02:57:23.995Z,17.11
2023-10-20T02:59:53.301Z,17.12
2023-10-20T03:02:21.770Z,17.10
2023-10-20T03:04:48.392Z,17.08
2023-10-20T03:07:14.929Z,17.08
2023-10-20T03:09:41.396Z,17.06
2023-10-20T03:12:07.847Z,17.06
2023-10-20T03:14:36.131Z,17.05
2023-10-20T03:17:03.044Z,17.05
2023-10-20T03:19:29.844Z,17.05
2023-10-20T03:21:56.434Z,17.03
2023-10-20T03:24:22.945Z,17.02
2023-10-20T03:26:49.637Z,17.01
2023-10-20T03:29:16.355Z,16.99
2023-10-20T03:31:43.358Z,17.00
2023-10-20T03:34:09.869Z,16.98
2023-10-20T03:36:36.329Z,16.97
2023-10-20T03:39:02.943Z,16.96
2023-10-20T03:41:30.493Z,16.96
2023-10-20T03:43:59.471Z,16.94
2023-10-20T03:46:28.030Z,16.93
2023-10-20T03:48:54.796Z,16.93
2023-10-20T03:51:22.581Z,16.91
2023-10-20T03:53:51.883Z,16.91
2023-10-20T03:56:20.514Z,16.90
2023-10-20T03:58:48.050Z,16.89
2023-10-20T04:01:14.807Z,16.88
2023-10-20T04:03:42.374Z,16.88
2023-10-20T04:06:12.898Z,16.87
2023-10-20T04:08:39.526Z,16.84
2023-10-20T04:11:06.181Z,16.84
2023-10-20T04:13:33.522Z,16.82
2023-10-20T04:16:13.224Z,16.82
2023-10-20T04:18:43.177Z,16.82
2023-10-20T04:21:12.610Z,16.81
2023-10-20T04:23:39.673Z,16.80
2023-10-20T04:26:17.055Z,16.80
2023-10-20T04:28:47.543Z,16.78
2023-10-20T04:31:32.999Z,16.77
2023-10-20T04:34:18.072Z,16.78
2023-10-20T04:37:03.366Z,16.75
2023-10-20T04:39:48.810Z,16.74
2023-10-20T04:42:33.850Z,16.74
2023-10-20T04:45:18.996Z,16.73
2023-10-20T04:47:57.643Z,16.71
2023-10-20T04:50:42.894Z,16.71
2023-10-20T04:53:32.672Z,16.70
2023-10-20T04:56:17.357Z,16.67
2023-10-20T04:58:53.014Z,16.67
2023-10-20T05:01:28.714Z,16.69
2023-10-20T05:03:59.122Z,16.67
2023-10-20T05:06:43.735Z,16.67
2023-10-20T05:09:14.157Z,16.65
2023-10-20T05:11:41.191Z,16.65
2023-10-20T05:14:07.744Z,16.65
2023-10-20T05:16:37.344Z,16.63
2023-10-20T05:19:06.882Z,16.63
2023-10-20T05:21:34.643Z,16.60
2023-10-20T05:24:06.959Z,16.60
2023-10-20T05:26:33.589Z,16.59
2023-10-20T05:29:00.525Z,16.58
2023-10-20T05:31:28.083Z,16.58
2023-10-20T05:33:54.754Z,16.58
2023-10-20T05:36:21.259Z,16.59
2023-10-20T05:38:48.231Z,16.58
2023-10-20T05:41:14.818Z,16.58
2023-10-20T05:43:42.510Z,16.56
2023-10-20T05:46:19.007Z,16.57
2023-10-20T05:48:46.179Z,16.56
2023-10-20T05:51:13.251Z,16.56
2023-10-20T05:53:39.766Z,16.55
2023-10-20T05:56:07.651Z,16.54
2023-10-20T05:58:36.136Z,16.52
2023-10-20T06:01:10.648Z,16.51
2023-10-20T06:03:37.374Z,16.51
2023-10-20T06:06:06.891Z,16.50
2023-10-20T06:08:33.561Z,16.51
2023-10-20T06:11:06.814Z,16.50
2023-10-20T06:13:35.552Z,16.50
2023-10-20T06:16:12.412Z,16.50
2023-10-20T06:18:40.056Z,16.50
2023-10-20T06:21:07.189Z,16.50
2023-10-20T06:23:33.927Z,16.49
2023-10-20T06:26:00.568Z,16.48
2023-10-20T06:28:27.902Z,16.49
2023-10-20T06:30:58.895Z,16.47
2023-10-20T06:33:30.423Z,16.48
2023-10-20T06:36:01.561Z,16.48
2023-10-20T06:38:46.030Z,16.46
2023-10-20T06:41:14.426Z,16.46
2023-10-20T06:43:41.096Z,16.46
2023-10-20T06:46:07.607Z,16.46
2023-10-20T06:48:34.179Z,16.45
2023-10-20T06:51:00.630Z,16.45
2023-10-20T06:53:27.102Z,16.44
2023-10-20T06:56:04.791Z,16.44
2023-10-20T06:58:40.039Z,16.44
2023-10-20T07:01:07.070Z,16.45
2023-10-20T07:03:33.967Z,16.44
2023-10-20T07:06:01.748Z,16.37
2023-10-20T07:08:28.382Z,16.43
2023-10-20T07:10:54.903Z,16.43
2023-10-20T07:13:21.353Z,16.42
2023-10-20T07:15:47.919Z,16.43
2023-10-20T07:18:14.574Z,16.43
2023-10-20T07:20:41.235Z,16.43
2023-10-20T07:23:07.820Z,16.44
2023-10-20T07:25:34.550Z,16.45
2023-10-20T07:28:01.050Z,16.45
2023-10-20T07:30:33.209Z,16.46
2023-10-20T07:32:59.712Z,16.46
2023-10-20T07:35:26.388Z,16.46
2023-10-20T07:37:52.910Z,16.47
2023-10-20T07:40:20.218Z,16.48
2023-10-20T07:42:47.779Z,16.48
2023-10-20T07:45:14.505Z,16.47
2023-10-20T07:47:41.068Z,16.49
2023-10-20T07:50:07.781Z,16.49
2023-10-20T07:52:34.307Z,16.49
2023-10-20T07:55:02.673Z,16.49
2023-10-20T07:57:30.110Z,16.50
2023-10-20T07:59:56.616Z,16.49
2023-10-20T08:02:24.947Z,16.51
2023-10-20T08:04:52.297Z,16.50
2023-10-20T08:07:19.506Z,16.49
2023-10-20T08:09:48.424Z,16.50
2023-10-20T08:12:16.277Z,16.48
2023-10-20T08:14:42.868Z,16.48
2023-10-20T08:17:11.564Z,16.49
2023-10-20T08:19:38.188Z,16.49
2023-10-20T08:22:04.768Z,16.49
2023-10-20T08:24:31.607Z,16.49
2023-10-20T08:26:58.968Z,16.50
2023-10-20T08:29:25.887Z,16.51
2023-10-20T08:31:52.803Z,16.50
2023-10-20T08:34:19.319Z,16.51
2023-10-20T08:36:45.859Z,16.50
2023-10-20T08:39:15.372Z,16.51
2023-10-20T08:41:43.578Z,16.51
2023-10-20T08:44:10.869Z,16.49
2023-10-20T08:46:37.573Z,16.50
2023-10-20T08:49:06.660Z,16.50
2023-10-20T08:51:33.952Z,16.49
2023-10-20T08:54:00.613Z,16.50
2023-10-20T08:56:27.971Z,16.50
2023-10-20T08:58:58.137Z,16.48
2023-10-20T09:01:25.107Z,16.48
2023-10-20T09:03:53.558Z,16.50
2023-10-20T09:06:20.755Z,16.48
2023-10-20T09:08:48.668Z,16.48
2023-10-20T09:11:15.371Z,16.47
2023-10-20T09:13:42.381Z,16.48
2023-10-20T09:16:10.071Z,16.47
2023-10-20T09:18:54.569Z,16.48
2023-10-20T09:21:22.697Z,16.46
2023-10-20T09:23:58.265Z,16.47
2023-10-20T09:26:27.957Z,16.46
2023-10-20T09:28:55.709Z,16.47
2023-10-20T09:31:23.408Z,16.46
2023-10-20T09:33:50.359Z,16.46
2023-10-20T09:36:17.248Z,16.45
2023-10-20T09:39:06.446Z,16.45
2023-10-20T09:41:34.068Z,16.44
2023-10-20T09:44:08.348Z,16.44
2023-10-20T09:46:54.621Z,16.44
2023-10-20T09:49:27.132Z,16.42
2023-10-20T09:51:55.620Z,16.43
2023-10-20T09:54:25.369Z,16.42
2023-10-20T09:56:52.594Z,16.42
2023-10-20T09:59:21.437Z,16.42
2023-10-20T10:01:48.239Z,16.43
2023-10-20T10:04:15.033Z,16.42
2023-10-20T10:06:46.565Z,16.40
2023-10-20T10:09:16.327Z,16.40
2023-10-20T10:11:46.419Z,16.40
2023-10-20T10:14:23.090Z,16.41
2023-10-20T10:16:56.470Z,16.41
2023-10-20T10:19:27.284Z,16.40
2023-10-20T10:21:54.842Z,16.40
2023-10-20T10:24:24.590Z,16.38
2023-10-20T10:26:56.367Z,16.38
2023-10-20T10:29:41.488Z,16.38
2023-10-20T10:32:11.629Z,16.38
2023-10-20T10:34:44.156Z,16.36
2023-10-20T10:37:10.738Z,16.36
2023-10-20T10:39:37.677Z,16.35
2023-10-20T10:42:05.176Z,16.34
2023-10-20T10:44:35.858Z,16.33
2023-10-20T10:47:04.387Z,16.33
2023-10-20T10:49:32.421Z,16.33
2023-10-20T10:51:59.931Z,16.32
2023-10-20T10:54:27.898Z,16.32
2023-10-20T10:56:57.335Z,16.33
2023-10-20T10:59:25.041Z,16.32
2023-10-20T11:01:52.779Z,16.32
2023-10-20T11:04:19.340Z,16.33
2023-10-20T11:06:46.021Z,16.33
2023-10-20T11:09:17.454Z,16.32
2023-10-20T11:11:49.069Z,16.32
2023-10-20T11:16:49.151Z,16.32
2023-10-20T11:19:16.174Z,16.32
2023-10-20T11:21:46.696Z,16.33
2023-10-20T11:24:24.030Z,16.32
2023-10-20T11:27:01.110Z,16.32
2023-10-20T11:29:28.712Z,16.31
2023-10-20T11:31:59.433Z,16.31
2023-10-20T11:34:26.436Z,16.30
2023-10-20T11:36:52.881Z,16.31
2023-10-20T11:39:22.505Z,16.30
2023-10-20T11:41:49.094Z,16.31
2023-10-20T11:44:15.560Z,16.31
2023-10-20T11:46:44.434Z,16.30
2023-10-20T11:49:12.045Z,16.30
2023-10-20T11:51:39.738Z,16.29
2023-10-20T11:54:07.097Z,16.23
2023-10-20T11:56:36.156Z,16.29
2023-10-20T11:59:02.773Z,16.28
2023-10-20T12:01:29.279Z,16.27
2023-10-20T12:03:55.845Z,16.27
2023-10-20T12:06:22.372Z,16.27
2023-10-20T12:08:49.058Z,16.25
2023-10-20T12:11:15.674Z,16.26
2023-10-20T12:13:47.852Z,16.25
2023-10-20T12:16:14.458Z,16.26
2023-10-20T12:18:41.695Z,16.25
2023-10-20T12:21:09.126Z,16.25
2023-10-20T12:23:35.737Z,16.25
2023-10-20T12:26:04.366Z,16.23
2023-10-20T12:28:32.416Z,16.23
2023-10-20T12:31:00.719Z,16.24
2023-10-20T12:33:28.475Z,16.22
2023-10-20T12:35:55.780Z,16.24
2023-10-20T12:38:23.155Z,16.22
2023-10-20T12:40:52.814Z,16.23
2023-10-20T12:43:19.956Z,16.23
2023-10-20T12:45:46.501Z,16.22
2023-10-20T12:48:13.041Z,16.23
2023-10-20T12:50:40.179Z,16.22
2023-10-20T12:53:08.472Z,16.21
2023-10-20T12:55:35.980Z,16.21
2023-10-20T12:58:03.443Z,16.21
2023-10-20T13:00:30.043Z,16.19
2023-10-20T13:02:56.758Z,16.19
2023-10-20T13:05:23.286Z,16.14
2023-10-20T13:07:51.470Z,16.19
2023-10-20T13:10:18.418Z,16.19
2023-10-20T13:12:44.912Z,16.18
2023-10-20T13:15:11.487Z,16.17
2023-10-20T13:17:38.782Z,16.17
2023-10-20T13:20:07.075Z,16.17
2023-10-20T13:22:33.865Z,16.16
2023-10-20T13:25:00.344Z,16.17
2023-10-20T13:27:27.815Z,16.17
2023-10-20T13:29:54.323Z,16.16
2023-10-20T13:32:20.785Z,16.15
2023-10-20T13:34:47.258Z,16.16
2023-10-20T13:37:13.696Z,16.02
2023-10-20T13:39:40.169Z,16.15
2023-10-20T13:42:07.934Z,16.16
2023-10-20T13:44:34.488Z,16.16
2023-10-20T13:47:01.033Z,16.15
2023-10-20T13:49:29.083Z,16.13
2023-10-20T13:51:55.548Z,16.13
2023-10-20T13:54:22.091Z,16.13
2023-10-20T13:56:48.605Z,16.13
2023-10-20T13:59:16.813Z,16.13
2023-10-20T14:01:43.361Z,16.13
2023-10-20T14:04:09.952Z,16.12
2023-10-20T14:06:36.579Z,16.11
2023-10-20T14:09:04.186Z,16.12
2023-10-20T14:11:30.783Z,16.13
2023-10-20T14:13:57.782Z,16.12
2023-10-20T14:16:24.379Z,16.12
2023-10-20T14:18:50.884Z,16.12
2023-10-20T14:21:17.461Z,16.11
2023-10-20T14:23:43.995Z,16.11
2023-10-20T14:26:10.507Z,16.12
2023-10-20T14:28:37.948Z,16.11
2023-10-20T14:31:08.016Z,16.12
2023-10-20T14:33:37.638Z,16.11
2023-10-20T14:36:07.106Z,16.12
2023-10-20T14:38:33.677Z,16.13
2023-10-20T14:41:04.172Z,16.12
2023-10-20T14:43:33.469Z,16.08
2023-10-20T14:46:00.582Z,16.13
2023-10-20T14:48:29.985Z,16.14
2023-10-20T14:50:57.327Z,16.14
2023-10-20T14:53:24.112Z,16.13
2023-10-20T14:55:50.723Z,16.15
2023-10-20T14:58:17.573Z,16.13
2023-10-20T15:00:48.421Z,16.16
2023-10-20T15:03:15.827Z,16.13
2023-10-20T15:05:42.889Z,16.13
2023-10-20T15:08:09.911Z,16.14
2023-10-20T15:10:36.907Z,16.14
2023-10-20T15:13:04.708Z,16.16
2023-10-20T15:15:32.022Z,16.14
2023-10-20T15:17:59.069Z,16.14
2023-10-20T15:20:25.981Z,16.15
2023-10-20T15:22:55.700Z,16.14
2023-10-20T15:25:29.781Z,16.16
2023-10-20T15:27:56.241Z,16.15
2023-10-20T15:30:23.286Z,16.16
2023-10-20T15:32:49.981Z,16.16
2023-10-20T15:35:16.991Z,16.15
2023-10-20T15:37:43.492Z,16.16
2023-10-20T15:40:18.652Z,16.16
2023-10-20T15:42:45.814Z,16.17
2023-10-20T15:45:12.376Z,16.16
2023-10-20T15:47:39.137Z,16.15
2023-10-20T15:50:06.104Z,16.16
2023-10-20T15:52:32.675Z,16.16
2023-10-20T15:54:59.186Z,16.14
2023-10-20T15:57:26.275Z,16.16
2023-10-20T15:59:56.774Z,16.16
2023-10-20T16:02:23.597Z,16.17
2023-10-20T16:04:51.007Z,16.16
2023-10-20T16:07:17.484Z,16.15
2023-10-20T16:09:43.941Z,16.16
2023-10-20T16:12:10.485Z,16.15
2023-10-20T16:14:36.991Z,16.11
2023-10-20T16:17:03.493Z,16.16
2023-10-20T16:19:29.924Z,16.17
2023-10-20T16:21:56.375Z,16.17
2023-10-20T16:24:23.012Z,16.18
2023-10-20T16:26:49.498Z,16.18
2023-10-20T16:29:16.022Z,16.18
2023-10-20T16:31:42.457Z,16.18
2023-10-20T16:34:09.079Z,16.18
2023-10-20T16:36:35.618Z,16.18
2023-10-20T16:39:05.294Z,16.19
2023-10-20T16:41:32.068Z,16.18
2023-10-20T16:43:58.564Z,16.19
2023-10-20T16:46:25.064Z,16.19
2023-10-20T16:48:52.540Z,16.18
2023-10-20T16:51:19.029Z,16.18
2023-10-20T16:53:47.885Z,16.19
2023-10-20T16:56:14.885Z,16.19
2023-10-20T16:58:44.491Z,16.17
2023-10-20T17:01:11.162Z,16.18
2023-10-20T17:03:37.953Z,16.17
2023-10-20T17:06:07.434Z,16.18
2023-10-20T17:08:34.238Z,16.18
2023-10-20T17:11:07.084Z,16.18
2023-10-20T17:13:34.529Z,16.17
2023-10-20T17:16:04.955Z,16.18
2023-10-20T17:18:31.914Z,16.18
2023-10-20T17:21:08.774Z,16.18
2023-10-20T17:23:35.909Z,16.18
2023-10-20T17:26:03.862Z,16.18
2023-10-20T17:28:31.899Z,16.18
2023-10-20T17:30:59.130Z,16.18
2023-10-20T17:33:29.036Z,16.19
2023-10-20T17:36:01.977Z,16.12
2023-10-20T17:38:28.514Z,16.19
2023-10-20T17:40:55.986Z,16.20
2023-10-20T17:43:22.470Z,16.19
2023-10-20T17:45:48.984Z,16.20
2023-10-20T17:48:15.631Z,16.19
2023-10-20T17:50:42.223Z,16.20
2023-10-20T17:53:10.328Z,16.20
2023-10-20T17:55:43.339Z,16.20
2023-10-20T17:58:09.967Z,16.19
2023-10-20T18:00:36.525Z,16.20
2023-10-20T18:03:03.983Z,16.20
2023-10-20T18:05:30.731Z,16.20
2023-10-20T18:07:57.320Z,16.21
2023-10-20T18:10:23.776Z,16.21
2023-10-20T18:12:51.014Z,16.21
2023-10-20T18:15:17.759Z,16.20
2023-10-20T18:17:44.311Z,16.21
2023-10-20T18:20:11.031Z,16.22
2023-10-20T18:22:37.537Z,16.21
2023-10-20T18:25:04.238Z,16.21
2023-10-20T18:27:30.738Z,16.21
2023-10-20T18:29:57.208Z,16.21
2023-10-20T18:32:23.820Z,16.21
2023-10-20T18:34:50.317Z,16.22
2023-10-20T18:37:16.806Z,16.22
2023-10-20T18:39:43.255Z,16.22
2023-10-20T18:42:11.509Z,16.22
2023-10-20T18:44:38.507Z,16.22
2023-10-20T18:47:05.399Z,16.23
2023-10-20T18:49:31.903Z,16.24
2023-10-20T18:51:58.374Z,16.23
2023-10-20T18:54:24.870Z,16.23
2023-10-20T18:56:51.338Z,16.23
2023-10-20T18:59:17.838Z,16.24
2023-10-20T19:01:44.270Z,16.25
2023-10-20T19:04:10.858Z,16.25
2023-10-20T19:06:38.025Z,16.26
2023-10-20T19:09:05.070Z,16.25
2023-10-20T19:11:31.910Z,16.26
2023-10-20T19:13:58.662Z,16.26
2023-10-20T19:16:25.146Z,16.26
2023-10-20T19:18:51.772Z,16.28
2023-10-20T19:21:18.357Z,16.27
2023-10-20T19:23:44.856Z,16.27
2023-10-20T19:26:11.723Z,16.29
2023-10-20T19:28:39.203Z,16.29
2023-10-20T19:31:08.380Z,16.29
2023-10-20T19:33:35.179Z,16.30
2023-10-20T19:36:02.833Z,16.31
2023-10-20T19:38:29.754Z,16.32
2023-10-20T19:40:56.321Z,16.31
2023-10-20T19:43:22.881Z,16.32
2023-10-20T19:45:49.373Z,16.32
2023-10-20T19:48:15.893Z,16.33
2023-10-20T19:50:43.777Z,16.34
2023-10-20T19:53:10.380Z,16.34
2023-10-20T19:55:36.823Z,16.36
2023-10-20T19:58:03.408Z,16.35
2023-10-20T20:00:31.266Z,16.36
2023-10-20T20:02:58.610Z,16.30
2023-10-20T20:05:31.431Z,16.37
2023-10-20T20:07:58.177Z,16.38
2023-10-20T20:10:24.926Z,16.38
2023-10-20T20:12:51.419Z,16.38
2023-10-20T20:15:18.713Z,16.39
2023-10-20T20:17:45.474Z,16.40
2023-10-20T20:20:12.114Z,16.39
2023-10-20T20:22:38.786Z,16.40
2023-10-20T20:25:05.489Z,16.42
2023-10-20T20:27:32.571Z,16.41
2023-10-20T20:29:59.202Z,16.42
2023-10-20T20:32:25.761Z,16.42
2023-10-20T20:34:52.296Z,16.43
2023-10-20T20:37:20.302Z,16.44
2023-10-20T20:39:46.900Z,16.43
2023-10-20T20:42:13.526Z,16.44
2023-10-20T20:44:40.123Z,16.45
2023-10-20T20:47:06.669Z,16.45
2023-10-20T20:49:33.418Z,16.46
2023-10-20T20:52:00.154Z,16.46
2023-10-20T20:54:26.683Z,16.46
2023-10-20T20:56:53.196Z,16.47
2023-10-20T20:59:19.821Z,16.48
2023-10-20T21:01:46.703Z,16.48
2023-10-20T21:04:13.589Z,16.49
2023-10-20T21:06:40.243Z,16.49
2023-10-20T21:09:06.867Z,16.49
2023-10-20T21:11:34.383Z,16.49
2023-10-20T21:14:04.257Z,16.49
2023-10-20T21:16:31.947Z,16.50
2023-10-20T21:19:01.525Z,16.51
2023-10-20T21:21:28.243Z,16.51
2023-10-20T21:23:54.789Z,16.52
2023-10-20T21:26:22.780Z,16.52
2023-10-20T21:28:49.493Z,16.52
2023-10-20T21:31:16.302Z,16.53
2023-10-20T21:33:42.962Z,16.52
2023-10-20T21:36:13.755Z,16.53
2023-10-20T21:38:40.315Z,16.53
2023-10-20T21:41:06.804Z,16.54
2023-10-20T21:43:33.265Z,16.54
2023-10-20T21:45:59.839Z,16.55
2023-10-20T21:48:27.080Z,16.55
2023-10-20T21:51:03.729Z,16.55
2023-10-20T21:53:33.268Z,16.56
2023-10-20T21:56:11.564Z,16.55
2023-10-20T21:58:38.433Z,16.55
2023-10-20T22:01:06.112Z,16.55
2023-10-20T22:03:33.024Z,16.56
2023-10-20T22:05:59.684Z,16.57
2023-10-20T22:08:26.254Z,16.56
2023-10-20T22:10:52.878Z,16.56
2023-10-20T22:13:19.626Z,16.57
2023-10-20T22:15:46.951Z,16.58
2023-10-20T22:18:13.527Z,16.58
2023-10-20T22:20:40.455Z,16.58
2023-10-20T22:23:07.981Z,16.58
2023-10-20T22:25:34.913Z,16.59
2023-10-20T22:28:01.516Z,16.58
2023-10-20T22:30:28.178Z,16.59
2023-10-20T22:32:54.827Z,16.59
2023-10-20T22:35:21.371Z,16.59
2023-10-20T22:37:49.353Z,16.58
2023-10-20T22:40:16.159Z,16.58
2023-10-20T22:42:42.597Z,16.59
2023-10-20T22:45:09.607Z,16.60
2023-10-20T22:47:36.226Z,16.59
2023-10-20T22:50:02.811Z,16.59
2023-10-20T22:52:29.324Z,16.59
2023-10-20T22:54:55.756Z,16.59
2023-10-20T22:57:22.277Z,16.60
2023-10-20T22:59:48.841Z,16.61
2023-10-20T23:02:15.357Z,16.60
2023-10-20T23:04:41.909Z,16.61
2023-10-20T23:07:08.527Z,16.62
2023-10-20T23:09:35.569Z,16.60
2023-10-20T23:12:02.276Z,16.61
2023-10-20T23:14:28.760Z,16.61
2023-10-20T23:16:55.220Z,16.60
2023-10-20T23:19:21.795Z,16.62
2023-10-20T23:21:48.304Z,16.62
2023-10-20T23:24:14.838Z,16.63
2023-10-20T23:26:41.884Z,16.62
2023-10-20T23:29:08.348Z,16.62
2023-10-20T23:31:34.804Z,16.62
2023-10-20T23:34:01.328Z,16.62
2023-10-20T23:36:30.620Z,16.61
2023-10-20T23:38:57.122Z,16.63
2023-10-20T23:41:23.662Z,16.63
2023-10-20T23:43:50.139Z,16.63
2023-10-20T23:46:16.668Z,16.62
2023-10-20T23:48:43.251Z,16.63
2023-10-20T23:51:09.915Z,16.63
2023-10-20T23:53:36.940Z,16.63
2023-10-20T23:56:03.556Z,16.63
2023-10-20T23:58:29.994Z,16.63
